Portada
METAR-TAF:

METAR-TAF

Aeropuertos :

Aeropuerto Internacional Bonriki

Tarawa, Kiribati

latitud: 01-21N, longitud: 172-55E, altitud: 2 m

Observación

El informe se hizo hace 10 horas y 50 minutos, a las 05:00 UTC
Viento 1 kt con dirección variable
Temperatura 29°C
Humedad 70%
Presión 1008 hPa
Visibilidad 10 km o más
Escasas nubes a una altura de 1800 ft, Cumulus congestus.
Nubes dispersas a una altura de 2000 ft

METAR: NGTA 210500Z VRB01KT 9999 FEW018TCU SCT020 29/23 Q1008

Hora: 05:50 (15:50 UTC)

Pronóstico

El informe se hizo hace 16 horas y 39 minutos, a las 23:11 UTC
Pronóstico válido del 21 a las 00 UTC al 21 a las 24 UTC
Viento 7 kt del sureste
Visibilidad 10 km o más
Nubes dispersas a una altura de 1900 ft

TAF: NGTA 202311Z 2100/2124 14007KT 9999 SCT019

Observaciones y pronósticos meteorológicos de más de 4000 aeropuertos (mensajes METAR y TAF).

Los puntos amarillos y rojos representan las estaciones disponibles.

Ponga el ratón en el punto deseado para ver el nombre de la estación.

Haga clic para ver las observaciones y los pronósticos meteorológicos.

Para cambiar el mapa : haga clic en los botones verdes con una cruz de color negro para hacer un zoom, en el botón verde con un guión para alejar o en las flechas verdes para mapas adyacentes.


METAR-TAF: